createdAt,value
2022-08-12T00:01:03.134Z,77.21
2022-08-12T00:03:51.084Z,77.28
2022-08-12T00:06:39.329Z,77.48
2022-08-12T00:09:26.834Z,77.96
2022-08-12T00:12:15.196Z,78.22
2022-08-12T00:15:04.067Z,78.21
2022-08-12T00:17:50.555Z,77.98
2022-08-12T00:20:36.726Z,77.66
2022-08-12T00:23:22.381Z,78.35
2022-08-12T00:26:22.951Z,77.44
2022-08-12T00:29:11.923Z,77.69
2022-08-12T00:32:00.317Z,78.08
2022-08-12T00:34:47.804Z,78.10
2022-08-12T00:37:36.300Z,78.15
2022-08-12T00:40:25.483Z,78.33
2022-08-12T00:42:53.602Z,78.73
2022-08-12T00:45:20.935Z,78.88
2022-08-12T00:47:49.440Z,79.14
2022-08-12T00:50:20.227Z,79.07
2022-08-12T00:52:49.196Z,79.02
2022-08-12T00:55:18.031Z,78.87
2022-08-12T00:57:48.706Z,79.13
2022-08-12T01:00:21.605Z,79.55
2022-08-12T01:02:57.717Z,79.89
2022-08-12T01:05:45.042Z,79.57
2022-08-12T01:08:50.912Z,80.00
2022-08-12T01:11:33.150Z,80.35
2022-08-12T01:14:02.684Z,80.49
2022-08-12T01:16:30.407Z,80.20
2022-08-12T01:19:00.581Z,80.06
2022-08-12T01:21:27.869Z,80.10
2022-08-12T01:24:34.115Z,80.35
2022-08-12T01:27:07.547Z,80.64
2022-08-12T01:29:41.953Z,80.53
2022-08-12T01:32:14.602Z,80.51
2022-08-12T01:35:05.893Z,80.15
2022-08-12T01:37:37.317Z,80.40
2022-08-12T01:40:34.587Z,80.39
2022-08-12T01:42:58.746Z,80.30
2022-08-12T01:45:29.650Z,80.57
2022-08-12T01:48:32.359Z,80.75
2022-08-12T01:52:04.514Z,80.97
2022-08-12T01:54:30.641Z,81.28
2022-08-12T01:57:13.662Z,81.64
2022-08-12T02:00:12.393Z,81.35
2022-08-12T02:02:57.874Z,81.61
2022-08-12T02:06:01.173Z,81.26
2022-08-12T02:09:10.819Z,81.53
2022-08-12T02:12:00.604Z,81.24
2022-08-12T02:14:51.243Z,81.52
2022-08-12T02:17:55.397Z,81.90
2022-08-12T02:20:51.969Z,81.99
2022-08-12T02:23:27.177Z,81.95
2022-08-12T02:26:20.917Z,82.35
2022-08-12T02:28:48.981Z,82.47
2022-08-12T02:31:16.454Z,82.77
2022-08-12T02:33:47.703Z,82.83
2022-08-12T02:36:16.555Z,82.90
2022-08-12T02:38:45.004Z,82.66
2022-08-12T02:41:17.045Z,82.90
2022-08-12T02:44:08.586Z,83.09
2022-08-12T02:46:36.953Z,83.18
2022-08-12T02:49:16.191Z,83.02
2022-08-12T02:51:44.448Z,83.13
2022-08-12T02:54:12.081Z,83.02
2022-08-12T02:56:41.920Z,83.28
2022-08-12T02:59:20.811Z,83.65
2022-08-12T03:01:54.514Z,84.20
2022-08-12T03:04:30.013Z,84.58
2022-08-12T03:07:09.935Z,84.64
2022-08-12T03:10:05.160Z,84.46
2022-08-12T03:12:40.094Z,84.77
2022-08-12T03:15:19.048Z,84.67
2022-08-12T03:18:28.682Z,84.82
2022-08-12T03:20:58.775Z,84.62
2022-08-12T03:23:29.723Z,84.64
2022-08-12T03:26:02.916Z,84.66
2022-08-12T03:28:54.195Z,84.80
2022-08-12T03:31:28.429Z,85.40
2022-08-12T03:34:06.555Z,85.35
2022-08-12T03:36:36.263Z,85.13
2022-08-12T03:39:15.532Z,85.23
2022-08-12T03:42:07.679Z,85.44
2022-08-12T03:45:00.649Z,85.71
2022-08-12T03:48:06.043Z,85.04
2022-08-12T03:50:51.943Z,84.91
2022-08-12T03:53:46.333Z,84.62
2022-08-12T03:56:32.755Z,84.43
2022-08-12T03:59:20.403Z,83.83
2022-08-12T04:01:57.940Z,83.68
2022-08-12T04:04:28.026Z,83.02
2022-08-12T04:06:58.199Z,82.66
2022-08-12T04:09:26.444Z,82.54
2022-08-12T04:12:12.178Z,82.51
2022-08-12T04:14:40.600Z,82.28
2022-08-12T04:17:08.584Z,81.27
2022-08-12T04:19:37.503Z,80.26
2022-08-12T04:22:04.984Z,80.01
2022-08-12T04:24:35.390Z,79.72
2022-08-12T04:27:08.879Z,79.94
2022-08-12T04:30:21.052Z,80.07
2022-08-12T04:32:26.065Z,80.03
2022-08-12T04:34:53.795Z,79.75
2022-08-12T04:37:21.421Z,79.49
2022-08-12T04:39:49.358Z,79.81
2022-08-12T04:42:16.589Z,79.77
2022-08-12T04:44:44.643Z,80.02
2022-08-12T04:47:13.299Z,79.86
2022-08-12T04:49:41.413Z,79.60
2022-08-12T04:52:10.491Z,79.24
2022-08-12T04:54:38.695Z,78.95
2022-08-12T04:57:09.682Z,78.86
2022-08-12T04:59:48.358Z,78.53
2022-08-12T05:02:22.810Z,78.38
2022-08-12T05:04:52.315Z,77.89
2022-08-12T05:07:21.071Z,77.78
2022-08-12T05:10:00.884Z,77.28
2022-08-12T05:12:38.178Z,77.07
2022-08-12T05:15:16.765Z,76.67
2022-08-12T05:17:56.206Z,76.56
2022-08-12T05:20:27.331Z,76.50
2022-08-12T05:23:13.804Z,76.04
2022-08-12T05:25:43.505Z,75.33
2022-08-12T05:28:13.183Z,74.39
2022-08-12T05:30:42.828Z,73.62
2022-08-12T05:33:12.119Z,73.26
2022-08-12T05:35:44.651Z,72.48
2022-08-12T05:38:37.210Z,71.25
2022-08-12T05:41:19.703Z,70.26
2022-08-12T05:43:52.441Z,69.65
2022-08-12T05:46:21.547Z,70.10
2022-08-12T05:48:50.149Z,70.08
2022-08-12T05:51:19.019Z,68.78
2022-08-12T05:53:47.055Z,68.62
2022-08-12T05:56:21.938Z,68.18
2022-08-12T05:58:51.589Z,67.34
2022-08-12T06:02:10.727Z,67.40
2022-08-12T06:04:12.442Z,67.01
2022-08-12T06:06:42.601Z,67.36
2022-08-12T06:09:11.806Z,67.24
2022-08-12T06:12:05.123Z,66.47
2022-08-12T06:14:29.122Z,65.91
2022-08-12T06:16:57.757Z,64.98
2022-08-12T06:20:27.771Z,65.15
2022-08-12T06:22:13.106Z,64.96
2022-08-12T06:24:40.211Z,64.83
2022-08-12T06:27:07.700Z,64.92
2022-08-12T06:30:07.273Z,64.85
2022-08-12T06:32:27.524Z,64.19
2022-08-12T06:35:26.020Z,63.77
2022-08-12T06:37:57.205Z,64.03
2022-08-12T06:40:44.054Z,64.46
2022-08-12T06:43:14.359Z,63.52
2022-08-12T06:45:47.472Z,63.51
2022-08-12T06:48:15.016Z,63.71
2022-08-12T06:50:42.777Z,63.06
2022-08-12T06:53:11.479Z,62.98
2022-08-12T06:55:56.734Z,62.89
2022-08-12T06:58:30.361Z,62.30
2022-08-12T07:00:59.316Z,61.76
2022-08-12T07:03:31.070Z,61.50
2022-08-12T07:06:04.881Z,61.29
2022-08-12T07:08:34.724Z,60.95
2022-08-12T07:11:05.289Z,60.16
2022-08-12T07:14:12.557Z,60.37
2022-08-12T07:16:46.460Z,59.11
2022-08-12T07:19:14.194Z,59.45
2022-08-12T07:22:00.306Z,59.54
2022-08-12T07:24:30.008Z,58.66
2022-08-12T07:26:57.254Z,57.83
2022-08-12T07:30:00.036Z,57.72
2022-08-12T07:32:13.486Z,58.09
2022-08-12T07:34:43.585Z,57.35
2022-08-12T07:37:10.872Z,56.88
2022-08-12T07:39:50.974Z,56.75
2022-08-12T07:42:25.440Z,56.77
2022-08-12T07:44:53.941Z,55.88
2022-08-12T07:47:21.350Z,56.17
2022-08-12T07:50:05.585Z,55.12
2022-08-12T07:52:38.717Z,55.16
2022-08-12T07:55:07.746Z,55.04
2022-08-12T07:57:48.350Z,53.72
2022-08-12T08:00:16.211Z,53.77
2022-08-12T08:02:43.382Z,53.09
2022-08-12T08:05:10.465Z,53.02
2022-08-12T08:07:38.817Z,52.41
2022-08-12T08:10:10.877Z,51.61
2022-08-12T08:12:59.006Z,51.74
2022-08-12T08:15:58.937Z,50.82
2022-08-12T08:18:26.853Z,52.29
2022-08-12T08:20:56.421Z,50.69
2022-08-12T08:23:46.409Z,50.54
2022-08-12T08:26:15.752Z,51.17
2022-08-12T08:28:43.685Z,50.61
2022-08-12T08:31:12.881Z,50.77
2022-08-12T08:34:04.862Z,49.58
2022-08-12T08:36:29.518Z,50.06
2022-08-12T08:38:58.598Z,49.85
2022-08-12T08:42:16.728Z,48.64
2022-08-12T08:44:39.615Z,49.61
2022-08-12T08:47:08.591Z,49.93
2022-08-12T08:49:37.432Z,50.22
2022-08-12T08:52:06.788Z,48.98
2022-08-12T08:54:38.018Z,49.16
2022-08-12T08:57:08.361Z,48.93
2022-08-12T08:59:36.159Z,49.08
2022-08-12T09:02:03.758Z,48.44
2022-08-12T09:05:11.116Z,47.65
2022-08-12T09:10:09.328Z,47.45
2022-08-12T09:13:22.858Z,47.73
2022-08-12T09:18:41.168Z,46.72
2022-08-12T09:21:09.703Z,46.81
2022-08-12T09:23:58.735Z,45.62
2022-08-12T09:26:28.787Z,46.04
2022-08-12T09:29:00.601Z,45.87
2022-08-12T09:32:07.611Z,45.75
2022-08-12T09:34:28.171Z,46.04
2022-08-12T09:37:18.699Z,45.52
2022-08-12T09:40:01.921Z,45.17
2022-08-12T09:43:11.770Z,45.58
2022-08-12T09:46:11.237Z,45.37
2022-08-12T09:48:34.977Z,45.77
2022-08-12T09:51:10.699Z,45.25
2022-08-12T09:53:39.734Z,44.70
2022-08-12T09:56:58.551Z,44.45
2022-08-12T09:59:01.645Z,44.05
2022-08-12T10:01:35.140Z,43.96
2022-08-12T10:04:19.351Z,43.65
2022-08-12T10:06:55.231Z,41.96
2022-08-12T10:09:57.363Z,43.99
2022-08-12T10:12:32.960Z,44.90
2022-08-12T10:15:02.289Z,44.60
2022-08-12T10:17:30.293Z,43.96
2022-08-12T10:19:59.726Z,44.99
2022-08-12T10:22:38.952Z,43.99
2022-08-12T10:26:38.185Z,43.03
2022-08-12T10:28:38.450Z,41.89
2022-08-12T10:31:15.911Z,41.18
2022-08-12T10:34:06.228Z,41.47
2022-08-12T10:36:40.749Z,42.64
2022-08-12T10:40:01.941Z,41.89
2022-08-12T10:42:29.461Z,41.32
2022-08-12T10:45:06.067Z,41.84
2022-08-12T10:48:16.026Z,41.46
2022-08-12T10:50:28.581Z,40.23
2022-08-12T10:53:00.971Z,40.63
2022-08-12T10:55:28.454Z,40.44
2022-08-12T10:58:14.397Z,40.47
2022-08-12T11:00:55.002Z,40.35
2022-08-12T11:04:28.235Z,40.16
2022-08-12T11:07:08.082Z,40.24
2022-08-12T11:08:58.830Z,39.80
2022-08-12T11:12:34.672Z,40.72
2022-08-12T11:14:49.472Z,39.54
2022-08-12T11:17:34.317Z,38.94
2022-08-12T11:19:55.633Z,38.89
2022-08-12T11:22:24.117Z,39.15
2022-08-12T11:24:53.649Z,38.75
2022-08-12T11:27:22.572Z,39.46
2022-08-12T11:30:06.445Z,39.02
2022-08-12T11:32:38.863Z,39.18
2022-08-12T11:35:06.936Z,38.89
2022-08-12T11:37:58.177Z,38.90
2022-08-12T11:40:23.268Z,38.82
2022-08-12T11:42:51.857Z,37.57
2022-08-12T11:45:19.727Z,37.90
2022-08-12T11:47:47.413Z,37.29
2022-08-12T11:50:21.430Z,36.83
2022-08-12T11:52:59.644Z,36.90
2022-08-12T11:55:29.540Z,36.41
2022-08-12T11:58:33.304Z,35.71
2022-08-12T12:03:44.104Z,37.08
2022-08-12T12:06:16.774Z,37.12
2022-08-12T12:08:50.442Z,36.61
2022-08-12T12:11:19.285Z,35.85
2022-08-12T12:14:08.176Z,35.91
2022-08-12T12:16:39.584Z,35.67
2022-08-12T12:19:10.231Z,36.62
2022-08-12T12:21:48.016Z,37.55
2022-08-12T12:24:22.065Z,37.35
2022-08-12T12:27:00.457Z,36.53
2022-08-12T12:30:17.929Z,37.15
2022-08-12T12:32:28.842Z,37.50
2022-08-12T12:35:14.500Z,37.24
2022-08-12T12:38:04.590Z,37.45
2022-08-12T12:40:43.767Z,37.59
2022-08-12T12:43:12.890Z,38.15
2022-08-12T12:45:44.487Z,38.67
2022-08-12T12:48:21.462Z,39.00
2022-08-12T12:51:13.756Z,38.13
2022-08-12T12:54:08.797Z,38.67
2022-08-12T12:56:48.045Z,37.89
2022-08-12T12:59:55.202Z,37.37
2022-08-12T13:02:08.671Z,37.30
2022-08-12T13:04:37.802Z,37.03
2022-08-12T13:07:06.828Z,36.47
2022-08-12T13:09:36.003Z,37.15
2022-08-12T13:12:08.176Z,37.12
2022-08-12T13:14:35.408Z,37.43
2022-08-12T13:17:11.429Z,37.80
2022-08-12T13:19:48.224Z,36.90
2022-08-12T13:22:23.549Z,37.08
2022-08-12T13:24:56.441Z,36.90
2022-08-12T13:27:34.500Z,37.40
2022-08-12T13:30:07.042Z,36.79
2022-08-12T13:32:56.867Z,36.78
2022-08-12T13:36:02.904Z,36.79
2022-08-12T13:38:34.618Z,36.58
2022-08-12T13:41:04.085Z,37.07
2022-08-12T13:43:41.006Z,36.87
2022-08-12T13:46:13.475Z,36.97
2022-08-12T13:48:44.964Z,37.08
2022-08-12T13:51:14.254Z,37.18
2022-08-12T13:53:58.157Z,37.46
2022-08-12T13:56:30.569Z,37.64
2022-08-12T13:59:07.718Z,38.56
2022-08-12T14:01:40.264Z,38.49
2022-08-12T14:04:11.351Z,39.43
2022-08-12T14:06:40.639Z,39.97
2022-08-12T14:09:15.574Z,39.83
2022-08-12T14:11:59.014Z,39.79
2022-08-12T14:14:31.317Z,39.81
2022-08-12T14:17:10.215Z,40.25
2022-08-12T14:20:00.495Z,39.61
2022-08-12T14:22:28.999Z,40.20
2022-08-12T14:24:58.389Z,40.48
2022-08-12T14:28:02.634Z,40.36
2022-08-12T14:30:24.082Z,41.13
2022-08-12T14:33:46.492Z,40.07
2022-08-12T14:36:26.927Z,40.67
2022-08-12T14:38:56.096Z,40.36
2022-08-12T14:41:36.687Z,41.07
2022-08-12T14:44:59.839Z,40.82
2022-08-12T14:47:01.338Z,40.74
2022-08-12T14:50:33.872Z,40.71
2022-08-12T14:53:42.349Z,40.66
2022-08-12T14:58:01.841Z,39.41
2022-08-12T15:00:52.384Z,39.81
2022-08-12T15:03:52.790Z,39.29
2022-08-12T15:06:44.618Z,39.56
2022-08-12T15:09:05.105Z,38.82
2022-08-12T15:11:48.769Z,38.24
2022-08-12T15:14:21.370Z,39.02
2022-08-12T15:16:49.962Z,38.75
2022-08-12T15:20:00.083Z,38.26
2022-08-12T15:22:38.483Z,38.68
2022-08-12T15:24:52.817Z,38.92
2022-08-12T15:27:22.455Z,38.74
2022-08-12T15:29:59.479Z,38.90
2022-08-12T15:32:32.221Z,39.24
2022-08-12T15:35:02.985Z,39.21
2022-08-12T15:38:09.028Z,38.72
2022-08-12T15:40:30.123Z,38.93
2022-08-12T15:42:59.942Z,38.57
2022-08-12T15:45:32.219Z,38.31
2022-08-12T15:48:04.596Z,38.11
2022-08-12T15:50:45.771Z,38.30
2022-08-12T15:53:17.202Z,38.10
2022-08-12T15:55:49.385Z,38.51
2022-08-12T15:58:18.189Z,38.81
2022-08-12T16:00:48.739Z,39.15
2022-08-12T16:03:45.313Z,39.09
2022-08-12T16:06:18.998Z,38.79
2022-08-12T16:08:57.975Z,38.15
2022-08-12T16:11:26.777Z,37.61
2022-08-12T16:13:54.176Z,37.15
2022-08-12T16:16:24.394Z,36.71
2022-08-12T16:18:59.566Z,36.94
2022-08-12T16:21:52.719Z,37.18
2022-08-12T16:24:20.647Z,37.79
2022-08-12T16:26:51.465Z,38.31
2022-08-12T16:29:52.196Z,38.96
2022-08-12T16:32:24.090Z,39.11
2022-08-12T16:34:55.733Z,39.98
2022-08-12T16:37:32.411Z,40.32
2022-08-12T16:40:12.075Z,40.34
2022-08-12T16:42:42.157Z,40.92
2022-08-12T16:45:23.488Z,41.42
2022-08-12T16:48:01.767Z,41.95
2022-08-12T16:50:30.971Z,42.20
2022-08-12T16:52:59.868Z,42.71
2022-08-12T16:55:41.974Z,43.01
2022-08-12T16:58:28.244Z,43.55
2022-08-12T17:01:01.786Z,44.10
2022-08-12T17:03:32.435Z,44.41
2022-08-12T17:06:06.528Z,44.45
2022-08-12T17:08:33.973Z,44.60
2022-08-12T17:11:01.013Z,44.91
2022-08-12T17:13:29.415Z,44.96
2022-08-12T17:16:06.130Z,45.30
2022-08-12T17:18:56.857Z,45.21
2022-08-12T17:21:41.591Z,45.77
2022-08-12T17:24:15.163Z,46.09
2022-08-12T17:26:49.458Z,46.54
2022-08-12T17:29:32.119Z,46.82
2022-08-12T17:32:11.268Z,47.32
2022-08-12T17:34:56.982Z,47.28
2022-08-12T17:37:24.275Z,47.69
2022-08-12T17:40:13.645Z,47.77
2022-08-12T17:42:39.689Z,48.53
2022-08-12T17:45:17.473Z,48.47
2022-08-12T17:48:01.132Z,48.77
2022-08-12T17:50:34.804Z,48.84
2022-08-12T17:53:02.917Z,49.46
2022-08-12T17:55:43.483Z,49.95
2022-08-12T17:58:35.682Z,50.50
2022-08-12T18:01:11.348Z,50.98
2022-08-12T18:03:58.094Z,50.81
2022-08-12T18:06:28.476Z,50.67
2022-08-12T18:08:59.434Z,51.34
2022-08-12T18:12:03.892Z,51.61
2022-08-12T18:14:37.321Z,51.81
2022-08-12T18:17:08.862Z,52.14
2022-08-12T18:20:05.283Z,52.22
2022-08-12T18:22:31.640Z,52.65
2022-08-12T18:25:03.902Z,52.80
2022-08-12T18:27:44.251Z,53.05
2022-08-12T18:30:16.332Z,53.24
2022-08-12T18:32:54.175Z,53.59
2022-08-12T18:35:46.476Z,53.57
2022-08-12T18:38:20.068Z,54.03
2022-08-12T18:41:09.711Z,53.90
2022-08-12T18:43:58.872Z,54.23
2022-08-12T18:46:32.395Z,54.74
2022-08-12T18:49:18.762Z,54.84
2022-08-12T18:52:02.387Z,55.17
2022-08-12T18:54:35.349Z,55.50
2022-08-12T18:57:19.975Z,56.11
2022-08-12T19:00:06.807Z,55.96
2022-08-12T19:02:40.704Z,56.17
2022-08-12T19:05:14.388Z,56.74
2022-08-12T19:07:49.686Z,57.02
2022-08-12T19:10:26.148Z,57.22
2022-08-12T19:13:21.015Z,57.61
2022-08-12T19:15:50.935Z,58.15
2022-08-12T19:18:22.035Z,58.20
2022-08-12T19:20:50.373Z,58.68
2022-08-12T19:23:21.440Z,58.86
2022-08-12T19:26:01.024Z,58.73
2022-08-12T19:28:34.808Z,59.10
2022-08-12T19:31:56.719Z,59.98
2022-08-12T19:35:32.859Z,60.27
2022-08-12T19:37:26.679Z,60.93
2022-08-12T19:40:09.227Z,60.88
2022-08-12T19:42:53.480Z,60.57
2022-08-12T19:45:22.207Z,60.35
2022-08-12T19:47:49.509Z,60.93
2022-08-12T19:50:20.243Z,60.67
2022-08-12T19:52:53.051Z,61.02
2022-08-12T19:55:22.728Z,61.12
2022-08-12T19:58:03.036Z,61.26
2022-08-12T20:00:34.699Z,61.97
2022-08-12T20:03:04.723Z,62.31
2022-08-12T20:06:06.528Z,62.79
2022-08-12T20:08:34.236Z,62.72
2022-08-12T20:12:11.210Z,63.35
2022-08-12T20:14:00.590Z,63.12
2022-08-12T20:16:57.267Z,63.69
2022-08-12T20:19:53.030Z,64.23
2022-08-12T20:22:29.459Z,64.61
2022-08-12T20:25:10.518Z,64.76
2022-08-12T20:28:02.914Z,65.18
2022-08-12T20:30:37.323Z,64.85
2022-08-12T20:33:50.339Z,64.91
2022-08-12T20:36:41.207Z,64.80
2022-08-12T20:39:05.402Z,64.50
2022-08-12T20:41:58.663Z,64.18
2022-08-12T20:44:27.393Z,64.58
2022-08-12T20:46:58.238Z,64.76
2022-08-12T20:49:25.662Z,65.61
2022-08-12T20:51:59.387Z,66.14
2022-08-12T20:54:33.993Z,66.58
2022-08-12T20:57:07.371Z,67.21
2022-08-12T20:59:49.654Z,67.82
2022-08-12T21:02:24.330Z,68.47
2022-08-12T21:05:20.335Z,68.45
2022-08-12T21:07:52.297Z,68.82
2022-08-12T21:10:20.739Z,69.24
2022-08-12T21:12:50.847Z,69.24
2022-08-12T21:15:30.157Z,69.29
2022-08-12T21:18:11.299Z,69.58
2022-08-12T21:20:51.560Z,69.87
2022-08-12T21:23:21.500Z,69.83
2022-08-12T21:25:51.145Z,69.77
2022-08-12T21:28:20.772Z,69.67
2022-08-12T21:31:11.360Z,70.05
2022-08-12T21:33:58.548Z,70.26
2022-08-12T21:36:34.431Z,71.16
2022-08-12T21:39:18.582Z,71.60
2022-08-12T21:41:53.979Z,72.03
2022-08-12T21:45:46.567Z,72.70
2022-08-12T21:47:21.609Z,72.68
2022-08-12T21:50:04.005Z,72.61
2022-08-12T21:52:43.378Z,73.33
2022-08-12T21:55:17.705Z,73.31
2022-08-12T21:57:54.394Z,72.83
2022-08-12T22:00:36.794Z,72.94
2022-08-12T22:04:03.229Z,72.76
2022-08-12T22:06:26.191Z,72.96
2022-08-12T22:09:02.717Z,72.80
2022-08-12T22:11:41.813Z,72.84
2022-08-12T22:14:21.264Z,73.40
2022-08-12T22:16:51.208Z,73.84
2022-08-12T22:19:19.834Z,73.64
2022-08-12T22:21:54.592Z,73.81
2022-08-12T22:24:27.131Z,73.63
2022-08-12T22:27:28.241Z,73.95
2022-08-12T22:30:16.954Z,74.18
2022-08-12T22:32:51.645Z,74.55
2022-08-12T22:35:55.661Z,74.72
2022-08-12T22:38:25.018Z,75.40
2022-08-12T22:41:01.871Z,75.45
2022-08-12T22:44:00.034Z,75.91
2022-08-12T22:46:34.819Z,75.30
2022-08-12T22:49:02.147Z,75.51
2022-08-12T22:51:59.848Z,75.78
2022-08-12T22:54:35.234Z,76.14
2022-08-12T22:57:11.894Z,76.17
2022-08-12T22:59:55.370Z,76.84
2022-08-12T23:02:29.041Z,76.85
2022-08-12T23:04:58.251Z,77.24
2022-08-12T23:07:25.523Z,77.32
2022-08-12T23:09:54.795Z,77.36
2022-08-12T23:12:46.958Z,77.30
2022-08-12T23:15:16.303Z,77.51
2022-08-12T23:17:43.625Z,77.59
2022-08-12T23:20:15.069Z,77.69
2022-08-12T23:22:43.962Z,77.85
2022-08-12T23:25:32.531Z,78.14
2022-08-12T23:28:37.179Z,77.91
2022-08-12T23:31:06.556Z,78.37
2022-08-12T23:34:00.107Z,78.89
2022-08-12T23:36:39.411Z,78.94
2022-08-12T23:40:06.851Z,79.35
2022-08-12T23:42:17.547Z,79.35
2022-08-12T23:44:48.693Z,80.02
2022-08-12T23:47:21.463Z,80.21
2022-08-12T23:49:58.640Z,79.95
2022-08-12T23:52:34.763Z,79.48
2022-08-12T23:55:23.262Z,79.70
2022-08-12T23:58:17.301Z,79.70
